Terminal Aerodrome Forecast
Issued by NWS

Home | Current Version | Previous Version | Text Only | Print | Product List | Glossary On
Versions: 1 2 3 4 5 6 7 8 9 10 11 12 13 14 15
000
FTUS45 KABQ 251741
TAFAEG
TAF
KAEG 251741Z 2518/2618 25017G28KT P6SM -RA OVC035
     FM252200 28022G31KT P6SM -SHRA BKN040
     FM260300 31020G30KT P6SM BKN045 OVC100
     FM261200 29012KT P6SM FEW030 SCT250=

USA.gov is the U.S. government's official web portal to all federal, state and local government web resources and services.